Maldives Meteorological Service

SYNOP

Station Code SYNOP
43555
AAXX 09124 43555 12465 82308 10302 20259 30068 40070 60002 82207 333 10330 59005 82818 88276=
43533
AAXX 09124 43533 12465 72505 10300 20264 30065 40067 60002 82248 333 10323 59015 82818 87275=
43577
AAXX 09124 43577 12467 71803 10296 20256 30073 40075 60002 82232 333 10319 59005 82818 86363=
43588
AAXX 09124 43588 12460 79902 10288 20244 30074 40075 60402 8227/ 333 10305 59002 82818 87362=
43599
AAXX 09124 43599 11460 71804 10284 20246 30075 40077 60012 70286 8227/ 333 10312 58000 82817 87361 =
Last Updated : 2020-07-09 17:04:35